Three Rivers, MI

3:10 AM EST on December 16, 2019 (GMT -0500)
Three Rivers Municipal-Haines

Weather History for KHAI - October, 2019

Change the Weather History Date:

Saturday, October 19, 2019

  Actual Average Record
Temperature  
Mean Temperature 49 °F -  
Max Temperature 63 °F 57 °F 84 °F (1953)
Min Temperature 35 °F 36 °F 21 °F (1972)
Degree Days  
Heating Degree Days 16    
Moisture  
Dew Point 39 °F    
Average Humidity 69    
Maximum Humidity 92    
Minimum Humidity 43    
Precipitation  
Precipitation 0.00 in - - ()
Sea Level Pressure  
Sea Level Pressure 29.89 in    
Wind  
Wind Speed 3 mph (SSE)    
Max Wind Speed 12 mph    
Max Gust Speed -    
Visibility 10 miles    
Events      
Averages and records for this station are not official NWS values.
T = Trace of Precipitation, MM = Missing Value Source: NWS Daily Summary

Daily Weather History Graph

Daily Weather History Graph

Search for Another Location

Airport or City:

Astronomy

Oct. 19, 2019 Rise Set
Actual Time 7:59 AM EDT 6:54 PM EDT
Civil Twilight 7:30 AM EDT 7:23 PM EDT
Nautical Twilight 6:58 AM EDT 7:55 PM EDT
Astronomical Twilight 6:26 AM EDT 8:27 PM EDT
Moon 10:59 PM EDT (10/19) 1:34 PM EDT (10/19)
Length of Visible Light 11h 52m
Length of Day
10h 55m
Waning Gibbous, 70% of the Moon is Illuminated
Oct 19
Waning Gibbous
Oct 21
Last Quarter
Oct 27
New
Nov 4
First Quarter
Nov 12
Full

Hourly Weather History & Observations

Time (EDT) Temp. Windchill Dew Point Humidity Pressure Visibility Wind Dir Wind Speed Gust Speed Precip Events Conditions
12:19 AM 44.2 °F 41.8 °F 36.7 °F 75% 29.97 in 10.0 mi SE 4.6 mph - N/A   Clear
12:37 AM 44.6 °F 43.1 °F 36.3 °F 73% 29.97 in 10.0 mi SE 3.5 mph - N/A   Clear
12:55 AM 43.5 °F 41.9 °F 35.4 °F 73% 29.97 in 10.0 mi SE 3.5 mph - N/A   Clear
12:56 AM 43.3 °F 41.7 °F 35.2 °F 73% 29.97 in 10.0 mi SE 3.5 mph - N/A   Clear
1:15 AM 40.8 °F - 34.9 °F 79% 29.97 in 10.0 mi Calm Calm - N/A   Clear
1:35 AM 39.9 °F - 35.2 °F 83% 29.97 in 5.0 mi Calm Calm - N/A   Haze
1:58 AM 38.8 °F - 35.6 °F 88% 29.97 in 7.0 mi Calm Calm - N/A   Clear
2:16 AM 38.7 °F - 35.8 °F 89% 29.97 in 10.0 mi Calm Calm - N/A   Clear
2:35 AM 36.5 °F - 33.6 °F 89% 29.97 in 10.0 mi Calm Calm - N/A   Clear
2:55 AM 37.8 °F - 34.9 °F 89% 29.97 in 7.0 mi Calm Calm - N/A   Clear
2:56 AM 37.8 °F - 34.9 °F 89% 29.97 in 10.0 mi Calm Calm - N/A   Clear
3:19 AM 38.3 °F - 35.6 °F 90% 29.97 in 10.0 mi Calm Calm - N/A   Clear
3:37 AM 39.2 °F 37.0 °F 36.1 °F 89% 29.97 in 10.0 mi SE 3.5 mph - N/A   Clear
3:55 AM 40.5 °F 36.5 °F 36.3 °F 85% 29.96 in 10.0 mi SE 5.8 mph - N/A   Clear
4:15 AM 41.2 °F 36.6 °F 36.5 °F 83% 29.95 in 10.0 mi SE 6.9 mph - N/A   Clear
4:35 AM 41.0 °F 37.1 °F 36.1 °F 83% 29.95 in 10.0 mi SE 5.8 mph - N/A   Clear
4:40 AM 41.0 °F 38.0 °F 36.3 °F 83% 29.95 in 10.0 mi SE 4.6 mph - N/A   Clear
4:58 AM 40.3 °F - 35.6 °F 83% 29.95 in 10.0 mi Calm Calm - N/A   Clear
5:16 AM 38.3 °F - 34.0 °F 84% 29.95 in 10.0 mi Calm Calm - N/A   Clear
5:35 AM 37.0 °F - 33.6 °F 87% 29.95 in 10.0 mi Calm Calm - N/A   Clear
5:55 AM 37.0 °F - 33.6 °F 87% 29.96 in 10.0 mi Calm Calm - N/A   Clear
5:56 AM 36.9 °F - 33.3 °F 87% 29.96 in 10.0 mi Calm Calm - N/A   Clear
6:19 AM 35.6 °F - 32.7 °F 89% 29.96 in 10.0 mi Calm Calm - N/A   Clear
6:37 AM 35.8 °F - 33.3 °F 91% 29.97 in 7.0 mi Calm Calm - N/A   Clear
6:55 AM 35.8 °F - 33.6 °F 92% 29.96 in 7.0 mi Calm Calm - N/A   Clear
7:15 AM 36.0 °F - 33.6 °F 91% 29.96 in 10.0 mi Calm Calm - N/A   Clear
7:16 AM 36.0 °F - 33.8 °F 92% 29.96 in 10.0 mi Calm Calm - N/A   Clear
7:35 AM 37.0 °F - 34.7 °F 91% 29.96 in 10.0 mi Calm Calm - N/A   Clear
7:40 AM 36.5 °F - 34.0 °F 91% 29.96 in 7.0 mi Calm Calm - N/A   Clear
7:58 AM 36.0 °F - 33.4 °F 91% 29.95 in 5.0 mi Calm Calm - N/A   Clear
8:16 AM 36.0 °F - 33.4 °F 91% 29.95 in 2.0 mi Calm Calm - N/A   Clear
8:35 AM 36.5 °F - 34.3 °F 92% 29.95 in 5.0 mi Calm Calm - N/A   Clear
8:36 AM 36.7 °F - 34.5 °F 92% 29.95 in 5.0 mi Calm Calm - N/A   Clear
8:55 AM 38.3 °F - 36.1 °F 92% 29.95 in 7.0 mi Calm Calm - N/A   Clear
9:19 AM 43.2 °F 39.7 °F 40.1 °F 89% 29.95 in 10.0 mi South 5.8 mph - N/A   Clear
9:37 AM 46.4 °F 42.4 °F 39.2 °F 76% 29.95 in 10.0 mi South 8.1 mph - N/A   Clear
9:55 AM 47.8 °F - 39.2 °F 72% 29.95 in 10.0 mi South 6.9 mph - N/A   Clear
10:15 AM 49.6 °F - 39.4 °F 68% 29.94 in 10.0 mi South 4.6 mph - N/A   Clear
10:16 AM 49.8 °F - 39.6 °F 68% 29.94 in 10.0 mi South 4.6 mph - N/A   Clear
10:35 AM 52.0 °F - 41.0 °F 66% 29.94 in 10.0 mi South 5.8 mph - N/A   Clear
10:40 AM 52.7 °F - 40.5 °F 63% 29.94 in 10.0 mi South 5.8 mph - N/A   Clear
10:58 AM 53.8 °F - 41.0 °F 62% 29.94 in 10.0 mi South 9.2 mph - N/A   Clear
11:16 AM 55.0 °F - 41.0 °F 59% 29.94 in 10.0 mi South 4.6 mph - N/A   Clear
11:35 AM 56.5 °F - 40.6 °F 55% 29.93 in 10.0 mi South 8.1 mph - N/A   Clear
11:36 AM 56.5 °F - 40.6 °F 55% 29.93 in 10.0 mi South 8.1 mph - N/A   Clear
11:55 AM 57.4 °F - 40.8 °F 54% 29.93 in 10.0 mi South 9.2 mph - N/A   Clear
12:19 PM 59.5 °F - 41.5 °F 51% 29.92 in 10.0 mi South 10.4 mph - N/A   Clear
12:37 PM 59.5 °F - 41.4 °F 51% 29.91 in 10.0 mi South 6.9 mph - N/A   Clear
12:55 PM 60.1 °F - 41.0 °F 49% 29.91 in 10.0 mi South 9.2 mph - N/A   Clear
12:56 PM 60.1 °F - 41.4 °F 50% 29.91 in 10.0 mi South 10.4 mph - N/A   Clear
1:15 PM 60.1 °F - 41.2 °F 50% 29.90 in 10.0 mi SSE 8.1 mph - N/A   Clear
1:35 PM 60.1 °F - 40.8 °F 49% 29.89 in 10.0 mi South 11.5 mph - N/A   Clear
1:58 PM 59.2 °F - 41.0 °F 51% 29.87 in 10.0 mi SSE 5.8 mph - N/A   Clear
2:16 PM 59.5 °F - 41.0 °F 50% 29.86 in 10.0 mi South 6.9 mph - N/A   Clear
2:35 PM 61.3 °F - 41.5 °F 48% 29.85 in 10.0 mi SSE 8.1 mph - N/A   Clear
2:55 PM 62.1 °F - 41.5 °F 47% 29.84 in 10.0 mi SSE 10.4 mph - N/A   Clear
3:19 PM 61.5 °F - 41.2 °F 47% 29.83 in 10.0 mi SSE 8.1 mph - N/A   Clear
3:37 PM 61.9 °F - 41.4 °F 47% 29.82 in 10.0 mi SSE 6.9 mph - N/A   Clear
3:55 PM 63.1 °F - 41.5 °F 45% 29.82 in 10.0 mi South 8.1 mph - N/A   Clear
4:15 PM 62.1 °F - 40.6 °F 45% 29.81 in 10.0 mi SSE 8.1 mph - N/A   Clear
4:35 PM 63.7 °F - 41.7 °F 45% 29.81 in 10.0 mi SE 9.2 mph - N/A   Clear
4:40 PM 63.3 °F - 40.6 °F 43% 29.80 in 10.0 mi SSE 5.8 mph - N/A   Clear
4:58 PM 61.9 °F - 41.2 °F 47% 29.79 in 10.0 mi SSE 5.8 mph - N/A   Clear
5:16 PM 62.2 °F - 41.7 °F 47% 29.79 in 10.0 mi SSE 5.8 mph - N/A   Clear
5:35 PM 62.2 °F - 41.0 °F 46% 29.79 in 10.0 mi SSE 5.8 mph - N/A   Clear
5:36 PM 62.1 °F - 41.0 °F 46% 29.79 in 10.0 mi SSE 4.6 mph - N/A   Clear
5:55 PM 61.7 °F - 40.6 °F 46% 29.79 in 10.0 mi SSE 4.6 mph - N/A   Clear
5:56 PM 61.5 °F - 40.8 °F 47% 29.79 in 10.0 mi SSE 4.6 mph - N/A   Clear
6:19 PM 60.6 °F - 41.0 °F 48% 29.78 in 10.0 mi SE 4.6 mph - N/A   Clear
6:55 PM 59.2 °F - 41.4 °F 52% 29.78 in 10.0 mi Calm Calm - N/A   Clear
7:15 PM 59.0 °F - 41.2 °F 52% 29.79 in 10.0 mi SE 3.5 mph - N/A   Clear
7:35 PM 57.4 °F - 41.9 °F 56% 29.79 in 10.0 mi SE 3.5 mph - N/A   Clear
7:40 PM 57.6 °F - 42.1 °F 56% 29.79 in 10.0 mi SE 3.5 mph - N/A   Clear
7:58 PM 57.4 °F - 42.1 °F 57% 29.79 in 10.0 mi ESE 3.5 mph - N/A   Clear
8:16 PM 56.8 °F - 42.1 °F 58% 29.79 in 10.0 mi ESE 3.5 mph - N/A   Clear
8:35 PM 56.8 °F - 41.9 °F 57% 29.80 in 10.0 mi SE 3.5 mph - N/A   Clear
8:55 PM 56.5 °F - 41.5 °F 57% 29.80 in 10.0 mi ESE 3.5 mph - N/A   Clear
9:19 PM 54.7 °F - 41.9 °F 62% 29.80 in 10.0 mi Calm Calm - N/A   Clear
9:37 PM 52.9 °F - 42.4 °F 68% 29.80 in 10.0 mi Calm Calm - N/A   Clear
9:55 PM 52.0 °F - 41.5 °F 68% 29.79 in 10.0 mi ESE 3.5 mph - N/A   Clear
10:15 PM 50.9 °F - 42.8 °F 74% 29.79 in 10.0 mi Calm Calm - N/A   Clear
10:35 PM 48.4 °F - 42.4 °F 80% 29.79 in 10.0 mi Calm Calm - N/A   Clear
10:40 PM 48.4 °F - 42.4 °F 80% 29.79 in 10.0 mi Calm Calm - N/A   Clear
10:58 PM 46.6 °F - 40.8 °F 80% 29.79 in 10.0 mi Calm Calm - N/A   Clear
11:16 PM 47.5 °F - 42.3 °F 82% 29.79 in 10.0 mi Calm Calm - N/A   Clear
11:35 PM 46.4 °F - 42.1 °F 85% 29.79 in 10.0 mi Calm Calm - N/A   Clear
11:55 PM 47.8 °F - 43.0 °F 83% 29.79 in 10.0 mi Calm Calm - N/A   Clear